sensor_id;sensor_type;location;lat;lon;timestamp;temperature;humidity
16392;DHT22;8305;-33.882;151.134;2023-08-12T00:01:36;14.20;99.90
16392;DHT22;8305;-33.882;151.134;2023-08-12T00:04:06;14.20;99.90
16392;DHT22;8305;-33.882;151.134;2023-08-12T00:06:37;14.20;99.90
16392;DHT22;8305;-33.882;151.134;2023-08-12T00:09:10;14.30;99.90
16392;DHT22;8305;-33.882;151.134;2023-08-12T00:11:42;14.40;99.90
16392;DHT22;8305;-33.882;151.134;2023-08-12T00:14:13;14.50;99.90
16392;DHT22;8305;-33.882;151.134;2023-08-12T00:16:44;14.60;99.90
16392;DHT22;8305;-33.882;151.134;2023-08-12T00:19:15;14.80;99.90
16392;DHT22;8305;-33.882;151.134;2023-08-12T00:21:46;14.90;99.90
16392;DHT22;8305;-33.882;151.134;2023-08-12T00:24:18;15.10;99.90
16392;DHT22;8305;-33.882;151.134;2023-08-12T00:26:49;15.20;99.90
16392;DHT22;8305;-33.882;151.134;2023-08-12T00:29:20;15.30;99.90
16392;DHT22;8305;-33.882;151.134;2023-08-12T00:31:50;15.40;99.90
16392;DHT22;8305;-33.882;151.134;2023-08-12T00:34:22;15.50;99.90
16392;DHT22;8305;-33.882;151.134;2023-08-12T00:36:53;15.70;99.90
16392;DHT22;8305;-33.882;151.134;2023-08-12T00:39:25;15.80;99.90
16392;DHT22;8305;-33.882;151.134;2023-08-12T00:41:56;15.90;99.90
16392;DHT22;8305;-33.882;151.134;2023-08-12T00:44:27;16.00;99.90
16392;DHT22;8305;-33.882;151.134;2023-08-12T00:46:58;16.10;99.90
16392;DHT22;8305;-33.882;151.134;2023-08-12T00:49:29;16.20;99.90
16392;DHT22;8305;-33.882;151.134;2023-08-12T00:52:01;16.30;99.90
16392;DHT22;8305;-33.882;151.134;2023-08-12T00:54:33;16.40;99.90
16392;DHT22;8305;-33.882;151.134;2023-08-12T00:57:05;16.50;99.90
16392;DHT22;8305;-33.882;151.134;2023-08-12T00:59:37;16.70;99.90
16392;DHT22;8305;-33.882;151.134;2023-08-12T01:02:08;16.70;99.90
16392;DHT22;8305;-33.882;151.134;2023-08-12T01:04:39;16.80;99.90
16392;DHT22;8305;-33.882;151.134;2023-08-12T01:07:10;16.90;99.90
16392;DHT22;8305;-33.882;151.134;2023-08-12T01:09:42;17.10;99.90
16392;DHT22;8305;-33.882;151.134;2023-08-12T01:12:16;17.20;99.90
16392;DHT22;8305;-33.882;151.134;2023-08-12T01:14:56;17.30;99.90
16392;DHT22;8305;-33.882;151.134;2023-08-12T01:17:28;17.20;99.90
16392;DHT22;8305;-33.882;151.134;2023-08-12T01:20:00;17.30;99.90
16392;DHT22;8305;-33.882;151.134;2023-08-12T01:22:38;17.50;99.90
16392;DHT22;8305;-33.882;151.134;2023-08-12T01:25:11;17.80;99.90
16392;DHT22;8305;-33.882;151.134;2023-08-12T01:27:42;17.80;99.90
16392;DHT22;8305;-33.882;151.134;2023-08-12T01:30:14;17.90;99.90
16392;DHT22;8305;-33.882;151.134;2023-08-12T01:32:58;18.00;99.90
16392;DHT22;8305;-33.882;151.134;2023-08-12T01:35:35;18.10;99.90
16392;DHT22;8305;-33.882;151.134;2023-08-12T01:38:09;18.10;99.90
16392;DHT22;8305;-33.882;151.134;2023-08-12T01:40:44;18.30;99.90
16392;DHT22;8305;-33.882;151.134;2023-08-12T01:43:16;18.40;99.90
16392;DHT22;8305;-33.882;151.134;2023-08-12T01:45:47;18.60;99.90
16392;DHT22;8305;-33.882;151.134;2023-08-12T01:48:18;18.70;99.90
16392;DHT22;8305;-33.882;151.134;2023-08-12T01:50:51;18.80;99.90
16392;DHT22;8305;-33.882;151.134;2023-08-12T01:53:21;18.90;99.90
16392;DHT22;8305;-33.882;151.134;2023-08-12T01:55:54;19.00;99.90
16392;DHT22;8305;-33.882;151.134;2023-08-12T01:58:25;19.00;99.90
16392;DHT22;8305;-33.882;151.134;2023-08-12T02:00:56;18.90;99.90
16392;DHT22;8305;-33.882;151.134;2023-08-12T02:03:26;19.10;99.90
16392;DHT22;8305;-33.882;151.134;2023-08-12T02:05:57;19.30;99.90
16392;DHT22;8305;-33.882;151.134;2023-08-12T02:08:28;19.50;99.90
16392;DHT22;8305;-33.882;151.134;2023-08-12T02:11:01;19.60;99.90
16392;DHT22;8305;-33.882;151.134;2023-08-12T02:13:32;19.60;99.90
16392;DHT22;8305;-33.882;151.134;2023-08-12T02:16:03;19.70;99.90
16392;DHT22;8305;-33.882;151.134;2023-08-12T02:18:35;19.70;99.90
16392;DHT22;8305;-33.882;151.134;2023-08-12T02:21:06;19.90;99.90
16392;DHT22;8305;-33.882;151.134;2023-08-12T02:23:37;19.90;99.90
16392;DHT22;8305;-33.882;151.134;2023-08-12T02:26:09;19.90;99.90
16392;DHT22;8305;-33.882;151.134;2023-08-12T02:28:40;19.90;99.90
16392;DHT22;8305;-33.882;151.134;2023-08-12T02:31:11;19.80;99.90
16392;DHT22;8305;-33.882;151.134;2023-08-12T02:33:42;19.80;99.90
16392;DHT22;8305;-33.882;151.134;2023-08-12T02:36:13;19.80;99.90
16392;DHT22;8305;-33.882;151.134;2023-08-12T02:38:44;19.80;99.90
16392;DHT22;8305;-33.882;151.134;2023-08-12T02:41:17;19.80;99.90
16392;DHT22;8305;-33.882;151.134;2023-08-12T02:43:48;19.80;99.90
16392;DHT22;8305;-33.882;151.134;2023-08-12T02:46:19;19.80;99.90
16392;DHT22;8305;-33.882;151.134;2023-08-12T02:48:50;19.70;99.90
16392;DHT22;8305;-33.882;151.134;2023-08-12T02:51:21;19.50;99.90
16392;DHT22;8305;-33.882;151.134;2023-08-12T02:53:51;19.40;99.90
16392;DHT22;8305;-33.882;151.134;2023-08-12T02:56:24;19.30;99.90
16392;DHT22;8305;-33.882;151.134;2023-08-12T02:58:55;19.20;99.90
16392;DHT22;8305;-33.882;151.134;2023-08-12T03:01:26;19.20;99.90
16392;DHT22;8305;-33.882;151.134;2023-08-12T03:03:56;19.20;99.90
16392;DHT22;8305;-33.882;151.134;2023-08-12T03:06:27;19.40;99.90
16392;DHT22;8305;-33.882;151.134;2023-08-12T03:08:58;19.70;99.90
16392;DHT22;8305;-33.882;151.134;2023-08-12T03:11:31;19.80;99.90
16392;DHT22;8305;-33.882;151.134;2023-08-12T03:14:02;20.00;99.90
16392;DHT22;8305;-33.882;151.134;2023-08-12T03:16:33;20.00;99.90
16392;DHT22;8305;-33.882;151.134;2023-08-12T03:19:04;20.10;99.90
16392;DHT22;8305;-33.882;151.134;2023-08-12T03:21:35;20.00;99.90
16392;DHT22;8305;-33.882;151.134;2023-08-12T03:24:07;19.90;99.90
16392;DHT22;8305;-33.882;151.134;2023-08-12T03:26:40;19.80;99.90
16392;DHT22;8305;-33.882;151.134;2023-08-12T03:29:11;19.60;99.90
16392;DHT22;8305;-33.882;151.134;2023-08-12T03:31:42;19.40;99.90
16392;DHT22;8305;-33.882;151.134;2023-08-12T03:34:13;19.20;99.90
16392;DHT22;8305;-33.882;151.134;2023-08-12T03:36:44;19.10;99.90
16392;DHT22;8305;-33.882;151.134;2023-08-12T03:39:16;19.00;99.90
16392;DHT22;8305;-33.882;151.134;2023-08-12T03:41:49;18.90;99.90
16392;DHT22;8305;-33.882;151.134;2023-08-12T03:44:20;18.90;99.90
16392;DHT22;8305;-33.882;151.134;2023-08-12T03:46:52;18.80;99.90
16392;DHT22;8305;-33.882;151.134;2023-08-12T03:49:23;18.70;99.90
16392;DHT22;8305;-33.882;151.134;2023-08-12T03:51:54;18.70;99.90
16392;DHT22;8305;-33.882;151.134;2023-08-12T03:54:25;18.70;99.90
16392;DHT22;8305;-33.882;151.134;2023-08-12T03:56:58;18.80;99.90
16392;DHT22;8305;-33.882;151.134;2023-08-12T03:59:29;18.80;99.90
16392;DHT22;8305;-33.882;151.134;2023-08-12T04:02:00;19.00;99.90
16392;DHT22;8305;-33.882;151.134;2023-08-12T04:04:32;19.20;99.90
16392;DHT22;8305;-33.882;151.134;2023-08-12T04:07:03;19.40;99.90
16392;DHT22;8305;-33.882;151.134;2023-08-12T04:09:34;19.60;99.90
16392;DHT22;8305;-33.882;151.134;2023-08-12T04:12:07;19.70;99.90
16392;DHT22;8305;-33.882;151.134;2023-08-12T04:14:38;19.70;99.90
16392;DHT22;8305;-33.882;151.134;2023-08-12T04:17:10;19.70;99.90
16392;DHT22;8305;-33.882;151.134;2023-08-12T04:19:41;19.80;99.90
16392;DHT22;8305;-33.882;151.134;2023-08-12T04:22:12;19.90;99.90
16392;DHT22;8305;-33.882;151.134;2023-08-12T04:24:44;20.00;99.90
16392;DHT22;8305;-33.882;151.134;2023-08-12T04:27:18;20.00;99.90
16392;DHT22;8305;-33.882;151.134;2023-08-12T04:29:49;19.90;99.90
16392;DHT22;8305;-33.882;151.134;2023-08-12T04:32:20;19.70;99.90
16392;DHT22;8305;-33.882;151.134;2023-08-12T04:34:51;19.60;99.90
16392;DHT22;8305;-33.882;151.134;2023-08-12T04:37:22;19.60;99.90
16392;DHT22;8305;-33.882;151.134;2023-08-12T04:39:54;19.50;99.90
16392;DHT22;8305;-33.882;151.134;2023-08-12T04:42:27;19.60;99.90
16392;DHT22;8305;-33.882;151.134;2023-08-12T04:44:58;19.80;99.90
16392;DHT22;8305;-33.882;151.134;2023-08-12T04:47:31;20.00;99.90
16392;DHT22;8305;-33.882;151.134;2023-08-12T04:50:02;20.20;99.90
16392;DHT22;8305;-33.882;151.134;2023-08-12T04:52:34;20.30;99.90
16392;DHT22;8305;-33.882;151.134;2023-08-12T04:55:06;20.40;99.90
16392;DHT22;8305;-33.882;151.134;2023-08-12T04:57:40;20.60;99.90
16392;DHT22;8305;-33.882;151.134;2023-08-12T05:00:12;20.70;99.90
16392;DHT22;8305;-33.882;151.134;2023-08-12T05:02:44;20.80;99.90
16392;DHT22;8305;-33.882;151.134;2023-08-12T05:05:16;20.70;99.90
16392;DHT22;8305;-33.882;151.134;2023-08-12T05:07:48;20.80;99.90
16392;DHT22;8305;-33.882;151.134;2023-08-12T05:10:19;20.80;99.90
16392;DHT22;8305;-33.882;151.134;2023-08-12T05:12:53;20.80;99.90
16392;DHT22;8305;-33.882;151.134;2023-08-12T05:15:24;20.70;99.90
16392;DHT22;8305;-33.882;151.134;2023-08-12T05:17:56;20.70;99.90
16392;DHT22;8305;-33.882;151.134;2023-08-12T05:20:28;20.60;99.90
16392;DHT22;8305;-33.882;151.134;2023-08-12T05:22:59;20.70;99.90
16392;DHT22;8305;-33.882;151.134;2023-08-12T05:25:31;20.70;99.90
16392;DHT22;8305;-33.882;151.134;2023-08-12T05:28:05;20.60;99.90
16392;DHT22;8305;-33.882;151.134;2023-08-12T05:30:37;20.70;99.90
16392;DHT22;8305;-33.882;151.134;2023-08-12T05:33:08;20.70;99.90
16392;DHT22;8305;-33.882;151.134;2023-08-12T05:35:40;20.60;99.90
16392;DHT22;8305;-33.882;151.134;2023-08-12T05:38:12;20.30;99.90
16392;DHT22;8305;-33.882;151.134;2023-08-12T05:40:43;20.00;99.90
16392;DHT22;8305;-33.882;151.134;2023-08-12T05:43:17;19.70;99.90
16392;DHT22;8305;-33.882;151.134;2023-08-12T05:45:50;19.50;99.90
16392;DHT22;8305;-33.882;151.134;2023-08-12T05:48:21;19.10;99.90
16392;DHT22;8305;-33.882;151.134;2023-08-12T05:50:53;18.90;99.90
16392;DHT22;8305;-33.882;151.134;2023-08-12T05:53:25;18.70;99.90
16392;DHT22;8305;-33.882;151.134;2023-08-12T05:55:56;18.50;99.90
16392;DHT22;8305;-33.882;151.134;2023-08-12T05:58:31;18.40;99.90
16392;DHT22;8305;-33.882;151.134;2023-08-12T06:01:03;18.30;99.90
16392;DHT22;8305;-33.882;151.134;2023-08-12T06:03:34;18.20;99.90
16392;DHT22;8305;-33.882;151.134;2023-08-12T06:06:06;18.00;99.90
16392;DHT22;8305;-33.882;151.134;2023-08-12T06:08:38;18.00;99.90
16392;DHT22;8305;-33.882;151.134;2023-08-12T06:11:09;17.90;99.90
16392;DHT22;8305;-33.882;151.134;2023-08-12T06:13:43;17.90;99.90
16392;DHT22;8305;-33.882;151.134;2023-08-12T06:16:15;17.80;99.90
16392;DHT22;8305;-33.882;151.134;2023-08-12T06:18:46;17.80;99.90
16392;DHT22;8305;-33.882;151.134;2023-08-12T06:21:18;17.70;99.90
16392;DHT22;8305;-33.882;151.134;2023-08-12T06:23:49;17.70;99.90
16392;DHT22;8305;-33.882;151.134;2023-08-12T06:26:21;17.70;99.90
16392;DHT22;8305;-33.882;151.134;2023-08-12T06:28:55;17.60;99.90
16392;DHT22;8305;-33.882;151.134;2023-08-12T06:31:26;17.60;99.90
16392;DHT22;8305;-33.882;151.134;2023-08-12T06:33:58;17.50;99.90
16392;DHT22;8305;-33.882;151.134;2023-08-12T06:36:30;17.50;99.90
16392;DHT22;8305;-33.882;151.134;2023-08-12T06:39:01;17.40;99.90
16392;DHT22;8305;-33.882;151.134;2023-08-12T06:41:33;17.30;99.90
16392;DHT22;8305;-33.882;151.134;2023-08-12T06:44:08;17.20;99.90
16392;DHT22;8305;-33.882;151.134;2023-08-12T06:46:39;17.20;99.90
16392;DHT22;8305;-33.882;151.134;2023-08-12T06:49:11;17.10;99.90
16392;DHT22;8305;-33.882;151.134;2023-08-12T06:51:43;17.10;99.90
16392;DHT22;8305;-33.882;151.134;2023-08-12T06:54:14;17.10;99.90
16392;DHT22;8305;-33.882;151.134;2023-08-12T06:56:46;17.00;99.90
16392;DHT22;8305;-33.882;151.134;2023-08-12T06:59:20;17.00;99.90
16392;DHT22;8305;-33.882;151.134;2023-08-12T07:01:51;16.90;99.90
16392;DHT22;8305;-33.882;151.134;2023-08-12T07:04:23;16.80;99.90
16392;DHT22;8305;-33.882;151.134;2023-08-12T07:06:55;16.80;99.90
16392;DHT22;8305;-33.882;151.134;2023-08-12T07:09:26;16.80;99.90
16392;DHT22;8305;-33.882;151.134;2023-08-12T07:11:58;16.80;99.90
16392;DHT22;8305;-33.882;151.134;2023-08-12T07:14:32;16.70;99.90
16392;DHT22;8305;-33.882;151.134;2023-08-12T07:17:04;16.70;99.90
16392;DHT22;8305;-33.882;151.134;2023-08-12T07:19:35;16.70;99.90
16392;DHT22;8305;-33.882;151.134;2023-08-12T07:22:07;16.60;99.90
16392;DHT22;8305;-33.882;151.134;2023-08-12T07:24:39;16.60;99.90
16392;DHT22;8305;-33.882;151.134;2023-08-12T07:27:10;16.60;99.90
16392;DHT22;8305;-33.882;151.134;2023-08-12T07:29:44;16.50;99.90
16392;DHT22;8305;-33.882;151.134;2023-08-12T07:32:17;16.50;99.90
16392;DHT22;8305;-33.882;151.134;2023-08-12T07:34:48;16.50;99.90
16392;DHT22;8305;-33.882;151.134;2023-08-12T07:37:20;16.40;99.90
16392;DHT22;8305;-33.882;151.134;2023-08-12T07:39:52;16.40;99.90
16392;DHT22;8305;-33.882;151.134;2023-08-12T07:42:23;16.40;99.90
16392;DHT22;8305;-33.882;151.134;2023-08-12T07:44:57;16.40;99.90
16392;DHT22;8305;-33.882;151.134;2023-08-12T07:47:29;16.30;99.90
16392;DHT22;8305;-33.882;151.134;2023-08-12T07:50:01;16.30;99.90
16392;DHT22;8305;-33.882;151.134;2023-08-12T07:52:32;16.30;99.90
16392;DHT22;8305;-33.882;151.134;2023-08-12T07:55:04;16.30;99.90
16392;DHT22;8305;-33.882;151.134;2023-08-12T07:57:36;16.30;99.90
16392;DHT22;8305;-33.882;151.134;2023-08-12T08:00:11;16.30;99.90
16392;DHT22;8305;-33.882;151.134;2023-08-12T08:02:46;16.20;99.90
16392;DHT22;8305;-33.882;151.134;2023-08-12T08:05:17;16.20;99.90
16392;DHT22;8305;-33.882;151.134;2023-08-12T08:07:49;16.20;99.90
16392;DHT22;8305;-33.882;151.134;2023-08-12T08:10:21;16.10;99.90
16392;DHT22;8305;-33.882;151.134;2023-08-12T08:12:52;16.10;99.90
16392;DHT22;8305;-33.882;151.134;2023-08-12T08:15:26;16.10;99.90
16392;DHT22;8305;-33.882;151.134;2023-08-12T08:17:58;16.00;99.90
16392;DHT22;8305;-33.882;151.134;2023-08-12T08:20:29;16.00;99.90
16392;DHT22;8305;-33.882;151.134;2023-08-12T08:23:01;16.00;99.90
16392;DHT22;8305;-33.882;151.134;2023-08-12T08:25:33;16.00;99.90
16392;DHT22;8305;-33.882;151.134;2023-08-12T08:28:04;16.00;99.90
16392;DHT22;8305;-33.882;151.134;2023-08-12T08:30:38;16.00;99.90
16392;DHT22;8305;-33.882;151.134;2023-08-12T08:33:10;15.90;99.90
16392;DHT22;8305;-33.882;151.134;2023-08-12T08:35:42;16.00;99.90
16392;DHT22;8305;-33.882;151.134;2023-08-12T08:38:14;15.90;99.90
16392;DHT22;8305;-33.882;151.134;2023-08-12T08:40:45;15.90;99.90
16392;DHT22;8305;-33.882;151.134;2023-08-12T08:43:20;15.90;99.90
16392;DHT22;8305;-33.882;151.134;2023-08-12T08:45:55;15.90;99.90
16392;DHT22;8305;-33.882;151.134;2023-08-12T08:48:28;15.90;99.90
16392;DHT22;8305;-33.882;151.134;2023-08-12T08:51:01;15.80;99.90
16392;DHT22;8305;-33.882;151.134;2023-08-12T08:53:35;15.80;99.90
16392;DHT22;8305;-33.882;151.134;2023-08-12T08:56:08;15.80;99.90
16392;DHT22;8305;-33.882;151.134;2023-08-12T08:58:40;15.80;99.90
16392;DHT22;8305;-33.882;151.134;2023-08-12T09:01:15;15.80;99.90
16392;DHT22;8305;-33.882;151.134;2023-08-12T09:03:52;15.80;99.90
16392;DHT22;8305;-33.882;151.134;2023-08-12T09:06:25;15.80;99.90
16392;DHT22;8305;-33.882;151.134;2023-08-12T09:08:57;15.80;99.90
16392;DHT22;8305;-33.882;151.134;2023-08-12T09:11:29;15.80;99.90
16392;DHT22;8305;-33.882;151.134;2023-08-12T09:14:01;15.80;99.90
16392;DHT22;8305;-33.882;151.134;2023-08-12T09:16:34;15.70;99.90
16392;DHT22;8305;-33.882;151.134;2023-08-12T09:19:06;15.70;99.90
16392;DHT22;8305;-33.882;151.134;2023-08-12T09:21:38;15.70;99.90
16392;DHT22;8305;-33.882;151.134;2023-08-12T09:24:09;15.70;99.90
16392;DHT22;8305;-33.882;151.134;2023-08-12T09:26:44;15.70;99.90
16392;DHT22;8305;-33.882;151.134;2023-08-12T09:29:15;15.70;99.90
16392;DHT22;8305;-33.882;151.134;2023-08-12T09:31:48;15.70;99.90
16392;DHT22;8305;-33.882;151.134;2023-08-12T09:34:20;15.70;99.90
16392;DHT22;8305;-33.882;151.134;2023-08-12T09:36:51;15.60;99.90
16392;DHT22;8305;-33.882;151.134;2023-08-12T09:39:21;15.50;99.90
16392;DHT22;8305;-33.882;151.134;2023-08-12T09:41:53;15.50;99.90
16392;DHT22;8305;-33.882;151.134;2023-08-12T09:44:23;15.50;99.90
16392;DHT22;8305;-33.882;151.134;2023-08-12T09:47:00;15.40;99.90
16392;DHT22;8305;-33.882;151.134;2023-08-12T09:49:31;15.40;99.90
16392;DHT22;8305;-33.882;151.134;2023-08-12T09:52:02;15.40;99.90
16392;DHT22;8305;-33.882;151.134;2023-08-12T09:54:34;15.40;99.90
16392;DHT22;8305;-33.882;151.134;2023-08-12T09:57:06;15.40;99.90
16392;DHT22;8305;-33.882;151.134;2023-08-12T09:59:39;15.30;99.90
16392;DHT22;8305;-33.882;151.134;2023-08-12T10:02:16;15.30;99.90
16392;DHT22;8305;-33.882;151.134;2023-08-12T10:04:52;15.30;99.90
16392;DHT22;8305;-33.882;151.134;2023-08-12T10:07:26;15.20;99.90
16392;DHT22;8305;-33.882;151.134;2023-08-12T10:09:58;15.10;99.90
16392;DHT22;8305;-33.882;151.134;2023-08-12T10:12:33;15.10;99.90
16392;DHT22;8305;-33.882;151.134;2023-08-12T10:15:08;15.00;99.90
16392;DHT22;8305;-33.882;151.134;2023-08-12T10:17:43;15.00;99.90
16392;DHT22;8305;-33.882;151.134;2023-08-12T10:20:21;15.00;99.90
16392;DHT22;8305;-33.882;151.134;2023-08-12T10:22:52;15.00;99.90
16392;DHT22;8305;-33.882;151.134;2023-08-12T10:25:26;14.90;99.90
16392;DHT22;8305;-33.882;151.134;2023-08-12T10:28:00;14.90;99.90
16392;DHT22;8305;-33.882;151.134;2023-08-12T10:30:31;14.80;99.90
16392;DHT22;8305;-33.882;151.134;2023-08-12T10:33:04;14.80;99.90
16392;DHT22;8305;-33.882;151.134;2023-08-12T10:35:45;14.80;99.90
16392;DHT22;8305;-33.882;151.134;2023-08-12T10:38:18;14.80;99.90
16392;DHT22;8305;-33.882;151.134;2023-08-12T10:40:49;14.70;99.90
16392;DHT22;8305;-33.882;151.134;2023-08-12T10:43:20;14.70;99.90
16392;DHT22;8305;-33.882;151.134;2023-08-12T10:45:54;14.70;99.90
16392;DHT22;8305;-33.882;151.134;2023-08-12T10:48:27;14.70;99.90
16392;DHT22;8305;-33.882;151.134;2023-08-12T10:51:00;14.70;99.90
16392;DHT22;8305;-33.882;151.134;2023-08-12T10:53:33;14.60;99.90
16392;DHT22;8305;-33.882;151.134;2023-08-12T10:56:05;14.60;99.90
16392;DHT22;8305;-33.882;151.134;2023-08-12T10:58:45;14.50;99.90
16392;DHT22;8305;-33.882;151.134;2023-08-12T11:01:18;14.50;99.90
16392;DHT22;8305;-33.882;151.134;2023-08-12T11:03:51;14.40;99.90
16392;DHT22;8305;-33.882;151.134;2023-08-12T11:06:22;14.40;99.90
16392;DHT22;8305;-33.882;151.134;2023-08-12T11:08:53;14.40;99.90
16392;DHT22;8305;-33.882;151.134;2023-08-12T11:11:27;14.40;99.90
16392;DHT22;8305;-33.882;151.134;2023-08-12T11:13:58;14.30;99.90
16392;DHT22;8305;-33.882;151.134;2023-08-12T11:16:36;14.30;99.90
16392;DHT22;8305;-33.882;151.134;2023-08-12T11:19:10;14.20;99.90
16392;DHT22;8305;-33.882;151.134;2023-08-12T11:21:40;14.20;99.90
16392;DHT22;8305;-33.882;151.134;2023-08-12T11:24:12;14.20;99.90
16392;DHT22;8305;-33.882;151.134;2023-08-12T11:26:43;14.10;99.90
16392;DHT22;8305;-33.882;151.134;2023-08-12T11:29:16;14.00;99.90
16392;DHT22;8305;-33.882;151.134;2023-08-12T11:31:47;14.00;99.90
16392;DHT22;8305;-33.882;151.134;2023-08-12T11:34:20;14.00;99.90
16392;DHT22;8305;-33.882;151.134;2023-08-12T11:36:51;14.00;99.90
16392;DHT22;8305;-33.882;151.134;2023-08-12T11:39:22;14.00;99.90
16392;DHT22;8305;-33.882;151.134;2023-08-12T11:41:57;14.00;99.90
16392;DHT22;8305;-33.882;151.134;2023-08-12T11:44:28;14.00;99.90
16392;DHT22;8305;-33.882;151.134;2023-08-12T11:46:59;13.90;99.90
16392;DHT22;8305;-33.882;151.134;2023-08-12T11:49:32;13.90;99.90
16392;DHT22;8305;-33.882;151.134;2023-08-12T11:52:03;13.90;99.90
16392;DHT22;8305;-33.882;151.134;2023-08-12T11:54:34;13.90;99.90
16392;DHT22;8305;-33.882;151.134;2023-08-12T11:57:05;13.90;99.90
16392;DHT22;8305;-33.882;151.134;2023-08-12T11:59:37;14.00;99.90
16392;DHT22;8305;-33.882;151.134;2023-08-12T12:02:08;14.00;99.90
16392;DHT22;8305;-33.882;151.134;2023-08-12T12:04:42;14.00;99.90
16392;DHT22;8305;-33.882;151.134;2023-08-12T12:07:22;14.10;99.90
16392;DHT22;8305;-33.882;151.134;2023-08-12T12:09:53;14.10;99.90
16392;DHT22;8305;-33.882;151.134;2023-08-12T12:12:27;14.00;99.90
16392;DHT22;8305;-33.882;151.134;2023-08-12T12:14:58;14.00;99.90
16392;DHT22;8305;-33.882;151.134;2023-08-12T12:17:29;14.00;99.90
16392;DHT22;8305;-33.882;151.134;2023-08-12T12:20:02;14.00;99.90
16392;DHT22;8305;-33.882;151.134;2023-08-12T12:22:34;13.90;99.90
16392;DHT22;8305;-33.882;151.134;2023-08-12T12:25:08;13.90;99.90
16392;DHT22;8305;-33.882;151.134;2023-08-12T12:27:39;13.90;99.90
16392;DHT22;8305;-33.882;151.134;2023-08-12T12:30:11;13.90;99.90
16392;DHT22;8305;-33.882;151.134;2023-08-12T12:32:43;13.90;99.90
16392;DHT22;8305;-33.882;151.134;2023-08-12T12:35:15;13.90;99.90
16392;DHT22;8305;-33.882;151.134;2023-08-12T12:37:46;13.90;99.90
16392;DHT22;8305;-33.882;151.134;2023-08-12T12:40:17;13.80;99.90
16392;DHT22;8305;-33.882;151.134;2023-08-12T12:42:48;13.70;99.90
16392;DHT22;8305;-33.882;151.134;2023-08-12T12:45:18;13.70;99.90
16392;DHT22;8305;-33.882;151.134;2023-08-12T12:47:49;13.70;99.90
16392;DHT22;8305;-33.882;151.134;2023-08-12T12:50:22;13.60;99.90
16392;DHT22;8305;-33.882;151.134;2023-08-12T12:52:52;13.60;99.90
16392;DHT22;8305;-33.882;151.134;2023-08-12T12:55:23;13.70;99.90
16392;DHT22;8305;-33.882;151.134;2023-08-12T12:57:54;13.60;99.90
16392;DHT22;8305;-33.882;151.134;2023-08-12T13:00:25;13.70;99.90
16392;DHT22;8305;-33.882;151.134;2023-08-12T13:02:56;13.60;99.90
16392;DHT22;8305;-33.882;151.134;2023-08-12T13:05:29;13.60;99.90
16392;DHT22;8305;-33.882;151.134;2023-08-12T13:07:59;13.50;99.90
16392;DHT22;8305;-33.882;151.134;2023-08-12T13:10:30;13.40;99.90
16392;DHT22;8305;-33.882;151.134;2023-08-12T13:13:01;13.30;99.90
16392;DHT22;8305;-33.882;151.134;2023-08-12T13:15:32;13.20;99.90
16392;DHT22;8305;-33.882;151.134;2023-08-12T13:18:03;13.20;99.90
16392;DHT22;8305;-33.882;151.134;2023-08-12T13:20:35;13.10;99.90
16392;DHT22;8305;-33.882;151.134;2023-08-12T13:23:06;13.10;99.90
16392;DHT22;8305;-33.882;151.134;2023-08-12T13:25:37;13.00;99.90
16392;DHT22;8305;-33.882;151.134;2023-08-12T13:28:08;13.00;99.90
16392;DHT22;8305;-33.882;151.134;2023-08-12T13:30:38;12.90;99.90
16392;DHT22;8305;-33.882;151.134;2023-08-12T13:33:09;12.90;99.90
16392;DHT22;8305;-33.882;151.134;2023-08-12T13:35:42;12.90;99.90
16392;DHT22;8305;-33.882;151.134;2023-08-12T13:38:12;12.90;99.90
16392;DHT22;8305;-33.882;151.134;2023-08-12T13:40:43;12.90;99.90
16392;DHT22;8305;-33.882;151.134;2023-08-12T13:43:15;13.00;99.90
16392;DHT22;8305;-33.882;151.134;2023-08-12T13:45:46;13.00;99.90
16392;DHT22;8305;-33.882;151.134;2023-08-12T13:48:16;13.10;99.90
16392;DHT22;8305;-33.882;151.134;2023-08-12T13:50:49;13.10;99.90
16392;DHT22;8305;-33.882;151.134;2023-08-12T13:53:20;13.10;99.90
16392;DHT22;8305;-33.882;151.134;2023-08-12T13:55:51;13.20;99.90
16392;DHT22;8305;-33.882;151.134;2023-08-12T13:58:22;13.20;99.90
16392;DHT22;8305;-33.882;151.134;2023-08-12T14:00:53;13.20;99.90
16392;DHT22;8305;-33.882;151.134;2023-08-12T14:03:23;13.20;99.90
16392;DHT22;8305;-33.882;151.134;2023-08-12T14:05:56;13.20;99.90
16392;DHT22;8305;-33.882;151.134;2023-08-12T14:08:27;13.30;99.90
16392;DHT22;8305;-33.882;151.134;2023-08-12T14:10:58;13.30;99.90
16392;DHT22;8305;-33.882;151.134;2023-08-12T14:13:28;13.30;99.90
16392;DHT22;8305;-33.882;151.134;2023-08-12T14:15:59;13.30;99.90
16392;DHT22;8305;-33.882;151.134;2023-08-12T14:18:30;13.40;99.90
16392;DHT22;8305;-33.882;151.134;2023-08-12T14:21:03;13.30;99.90
16392;DHT22;8305;-33.882;151.134;2023-08-12T14:23:33;13.30;99.90
16392;DHT22;8305;-33.882;151.134;2023-08-12T14:26:04;13.30;99.90
16392;DHT22;8305;-33.882;151.134;2023-08-12T14:28:35;13.30;99.90
16392;DHT22;8305;-33.882;151.134;2023-08-12T14:31:06;13.30;99.90
16392;DHT22;8305;-33.882;151.134;2023-08-12T14:33:36;13.30;99.90
16392;DHT22;8305;-33.882;151.134;2023-08-12T14:36:09;13.30;99.90
16392;DHT22;8305;-33.882;151.134;2023-08-12T14:38:40;13.30;99.90
16392;DHT22;8305;-33.882;151.134;2023-08-12T14:41:11;13.30;99.90
16392;DHT22;8305;-33.882;151.134;2023-08-12T14:43:41;13.30;99.90
16392;DHT22;8305;-33.882;151.134;2023-08-12T14:46:12;13.30;99.90
16392;DHT22;8305;-33.882;151.134;2023-08-12T14:48:43;13.20;99.90
16392;DHT22;8305;-33.882;151.134;2023-08-12T14:51:15;13.20;99.90
16392;DHT22;8305;-33.882;151.134;2023-08-12T14:53:46;13.20;99.90
16392;DHT22;8305;-33.882;151.134;2023-08-12T14:56:17;13.20;99.90
16392;DHT22;8305;-33.882;151.134;2023-08-12T14:58:48;13.20;99.90
16392;DHT22;8305;-33.882;151.134;2023-08-12T15:01:18;13.20;99.90
16392;DHT22;8305;-33.882;151.134;2023-08-12T15:03:49;13.10;99.90
16392;DHT22;8305;-33.882;151.134;2023-08-12T15:06:22;13.10;99.90
16392;DHT22;8305;-33.882;151.134;2023-08-12T15:08:53;13.20;99.90
16392;DHT22;8305;-33.882;151.134;2023-08-12T15:11:24;13.20;99.90
16392;DHT22;8305;-33.882;151.134;2023-08-12T15:13:54;13.20;99.90
16392;DHT22;8305;-33.882;151.134;2023-08-12T15:16:25;13.20;99.90
16392;DHT22;8305;-33.882;151.134;2023-08-12T15:18:56;13.20;99.90
16392;DHT22;8305;-33.882;151.134;2023-08-12T15:21:28;13.20;99.90
16392;DHT22;8305;-33.882;151.134;2023-08-12T15:23:59;13.20;99.90
16392;DHT22;8305;-33.882;151.134;2023-08-12T15:26:30;13.20;99.90
16392;DHT22;8305;-33.882;151.134;2023-08-12T15:29:01;13.20;99.90
16392;DHT22;8305;-33.882;151.134;2023-08-12T15:31:32;13.20;99.90